createdAt,value
2023-05-11T00:02:29.292Z,4.40
2023-05-11T00:05:00.270Z,4.20
2023-05-11T00:07:31.416Z,4.40
2023-05-11T00:10:02.034Z,5.00
2023-05-11T00:12:32.596Z,5.20
2023-05-11T00:15:03.338Z,5.10
2023-05-11T00:17:34.102Z,4.90
2023-05-11T00:20:05.382Z,4.70
2023-05-11T00:22:36.009Z,4.50
2023-05-11T00:25:08.528Z,5.40
2023-05-11T00:27:41.032Z,5.00
2023-05-11T00:30:14.751Z,4.50
2023-05-11T00:32:46.195Z,5.10
2023-05-11T00:35:16.868Z,4.70
2023-05-11T00:37:47.403Z,4.80
2023-05-11T00:40:18.583Z,4.60
2023-05-11T00:42:49.423Z,4.40
2023-05-11T00:45:21.508Z,4.30
2023-05-11T00:47:52.261Z,4.10
2023-05-11T00:50:23.514Z,4.30
2023-05-11T00:52:54.294Z,4.10
2023-05-11T00:55:25.501Z,4.30
2023-05-11T00:57:56.437Z,4.00
2023-05-11T01:00:27.117Z,3.80
2023-05-11T01:02:58.144Z,4.50
2023-05-11T01:05:35.115Z,4.20
2023-05-11T01:08:19.191Z,4.20
2023-05-11T01:10:56.610Z,4.20
2023-05-11T01:13:33.214Z,4.40
2023-05-11T01:16:09.714Z,3.90
2023-05-11T01:18:45.214Z,4.00
2023-05-11T01:21:17.679Z,3.90
2023-05-11T01:24:13.798Z,4.10
2023-05-11T01:27:00.808Z,3.70
2023-05-11T01:29:56.320Z,3.40
2023-05-11T01:32:30.143Z,4.20
2023-05-11T01:35:05.595Z,4.10
2023-05-11T01:37:37.123Z,4.60
2023-05-11T01:40:13.557Z,4.30
2023-05-11T01:42:48.530Z,3.90
2023-05-11T01:45:20.090Z,4.70
2023-05-11T01:47:52.008Z,4.80
2023-05-11T01:50:26.832Z,4.30
2023-05-11T01:52:57.876Z,5.00
2023-05-11T01:55:30.785Z,5.60
2023-05-11T01:58:03.268Z,5.40
2023-05-11T02:00:34.621Z,5.40
2023-05-11T02:03:07.522Z,5.20
2023-05-11T02:05:40.167Z,5.10
2023-05-11T02:08:12.105Z,5.50
2023-05-11T02:10:44.534Z,5.20
2023-05-11T02:13:17.839Z,5.70
2023-05-11T02:15:50.720Z,4.90
2023-05-11T02:18:22.322Z,5.10
2023-05-11T02:20:54.005Z,5.30
2023-05-11T02:23:26.373Z,5.80
2023-05-11T02:25:58.000Z,5.40
2023-05-11T02:28:28.775Z,5.60
2023-05-11T02:31:06.288Z,7.70
2023-05-11T02:33:40.414Z,6.60
2023-05-11T02:36:15.656Z,6.90
2023-05-11T02:38:49.066Z,7.40
2023-05-11T02:41:25.871Z,7.40
2023-05-11T02:44:02.464Z,5.50
2023-05-11T02:46:37.745Z,6.00
2023-05-11T02:49:11.735Z,7.00
2023-05-11T02:51:47.464Z,6.70
2023-05-11T02:54:19.612Z,7.00
2023-05-11T02:56:51.019Z,7.50
2023-05-11T02:59:22.017Z,7.40
2023-05-11T03:01:53.444Z,7.70
2023-05-11T03:04:24.236Z,7.60
2023-05-11T03:06:55.597Z,8.80
2023-05-11T03:09:26.493Z,7.20
2023-05-11T03:11:58.569Z,7.10
2023-05-11T03:14:29.335Z,7.60
2023-05-11T03:17:01.806Z,8.70
2023-05-11T03:19:34.444Z,7.40
2023-05-11T03:22:05.348Z,8.20
2023-05-11T03:24:36.756Z,7.60
2023-05-11T03:27:10.005Z,7.20
2023-05-11T03:29:43.666Z,7.10
2023-05-11T03:32:14.857Z,7.20
2023-05-11T03:34:45.786Z,7.30
2023-05-11T03:37:18.917Z,7.00
2023-05-11T03:39:53.459Z,7.00
2023-05-11T03:42:26.506Z,7.00
2023-05-11T03:44:59.831Z,6.30
2023-05-11T03:47:32.761Z,6.00
2023-05-11T03:50:04.809Z,6.50
2023-05-11T03:52:36.138Z,6.50
2023-05-11T03:55:08.588Z,6.80
2023-05-11T03:57:39.944Z,6.70
2023-05-11T04:00:13.749Z,6.80
2023-05-11T04:02:44.280Z,5.90
2023-05-11T04:05:16.146Z,8.90
2023-05-11T04:07:47.344Z,8.20
2023-05-11T04:10:18.297Z,6.00
2023-05-11T04:12:49.309Z,6.20
2023-05-11T04:15:19.973Z,6.40
2023-05-11T04:17:50.555Z,6.20
2023-05-11T04:20:21.143Z,6.10
2023-05-11T04:22:51.696Z,7.00
2023-05-11T04:25:22.576Z,6.50
2023-05-11T04:27:52.986Z,6.50
2023-05-11T04:30:23.808Z,6.30
2023-05-11T04:32:54.367Z,6.20
2023-05-11T04:35:26.034Z,5.70
2023-05-11T04:37:56.413Z,6.60
2023-05-11T04:40:27.216Z,6.00
2023-05-11T04:42:58.276Z,7.20
2023-05-11T04:45:29.208Z,5.90
2023-05-11T04:47:59.788Z,5.90
2023-05-11T04:50:30.412Z,6.80
2023-05-11T04:53:01.607Z,7.40
2023-05-11T04:55:32.454Z,7.00
2023-05-11T04:58:03.050Z,22.40
2023-05-11T05:00:33.493Z,8.10
2023-05-11T05:03:04.471Z,6.80
2023-05-11T05:05:35.371Z,6.30
2023-05-11T05:08:05.859Z,6.50
2023-05-11T05:10:36.506Z,6.40
2023-05-11T05:13:07.054Z,7.10
2023-05-11T05:15:37.611Z,6.50
2023-05-11T05:18:08.309Z,7.00
2023-05-11T05:20:39.700Z,7.00
2023-05-11T05:23:10.547Z,7.20
2023-05-11T05:25:41.395Z,6.50
2023-05-11T05:28:11.868Z,6.60
2023-05-11T05:30:42.536Z,6.80
2023-05-11T05:33:13.266Z,6.70
2023-05-11T05:35:43.947Z,7.10
2023-05-11T05:38:14.659Z,6.80
2023-05-11T05:40:46.309Z,7.00
2023-05-11T05:43:17.188Z,6.50
2023-05-11T05:45:47.994Z,7.10
2023-05-11T05:48:18.573Z,6.20
2023-05-11T05:50:49.600Z,6.60
2023-05-11T05:53:20.140Z,7.50
2023-05-11T05:55:50.977Z,7.10
2023-05-11T05:58:22.133Z,7.50
2023-05-11T06:00:52.727Z,7.50
2023-05-11T06:03:23.571Z,7.70
2023-05-11T06:05:54.179Z,7.40
2023-05-11T06:08:24.997Z,7.70
2023-05-11T06:10:56.305Z,7.30
2023-05-11T06:13:27.260Z,7.70
2023-05-11T06:15:57.853Z,7.40
2023-05-11T06:18:28.927Z,7.30
2023-05-11T06:20:59.825Z,6.70
2023-05-11T06:23:30.411Z,7.50
2023-05-11T06:26:01.435Z,6.70
2023-05-11T06:28:32.896Z,7.20
2023-05-11T06:31:03.816Z,7.20
2023-05-11T06:33:35.307Z,7.10
2023-05-11T06:36:09.570Z,6.90
2023-05-11T06:38:40.447Z,6.10
2023-05-11T06:41:11.530Z,7.90
2023-05-11T06:43:42.919Z,7.20
2023-05-11T06:46:16.321Z,7.60
2023-05-11T06:48:47.094Z,6.70
2023-05-11T06:51:18.119Z,6.60
2023-05-11T06:53:49.186Z,6.60
2023-05-11T06:56:19.708Z,7.00
2023-05-11T06:58:50.539Z,5.90
2023-05-11T07:01:21.145Z,6.50
2023-05-11T07:03:55.051Z,6.10
2023-05-11T07:06:25.626Z,6.50
2023-05-11T07:08:56.611Z,5.60
2023-05-11T07:11:27.848Z,5.20
2023-05-11T07:13:58.395Z,5.10
2023-05-11T07:16:29.620Z,5.00
2023-05-11T07:19:00.946Z,4.60
2023-05-11T07:21:32.795Z,4.60
2023-05-11T07:24:04.256Z,3.70
2023-05-11T07:26:35.022Z,3.90
2023-05-11T07:29:05.568Z,3.80
2023-05-11T07:31:37.221Z,3.40
2023-05-11T07:34:07.983Z,3.90
2023-05-11T07:36:40.318Z,3.90
2023-05-11T07:39:11.174Z,3.50
2023-05-11T07:41:42.416Z,3.40
2023-05-11T07:44:13.455Z,4.10
2023-05-11T07:46:44.372Z,3.70
2023-05-11T07:49:22.655Z,4.00
2023-05-11T07:51:59.569Z,3.70
2023-05-11T07:54:30.730Z,3.90
2023-05-11T07:57:02.172Z,4.30
2023-05-11T07:59:33.033Z,4.20
2023-05-11T08:02:04.282Z,4.40
2023-05-11T08:04:35.032Z,3.90
2023-05-11T08:07:06.206Z,4.50
2023-05-11T08:09:40.828Z,3.90
2023-05-11T08:12:11.631Z,4.00
2023-05-11T08:14:43.131Z,4.70
2023-05-11T08:17:14.284Z,5.40
2023-05-11T08:19:45.243Z,5.00
2023-05-11T08:22:16.255Z,4.40
2023-05-11T08:24:47.042Z,4.30
2023-05-11T08:27:18.076Z,4.40
2023-05-11T08:29:48.750Z,4.00
2023-05-11T08:32:19.679Z,4.60
2023-05-11T08:34:51.935Z,4.80
2023-05-11T08:37:23.375Z,5.40
2023-05-11T08:39:54.330Z,4.50
2023-05-11T08:42:27.186Z,5.00
2023-05-11T08:44:59.308Z,5.30
2023-05-11T08:47:30.933Z,4.90
2023-05-11T08:50:01.507Z,4.40
2023-05-11T08:52:34.477Z,4.40
2023-05-11T08:55:05.349Z,4.90
2023-05-11T08:57:38.257Z,5.10
2023-05-11T09:00:11.212Z,5.30
2023-05-11T09:02:43.106Z,5.50
2023-05-11T09:05:15.553Z,5.90
2023-05-11T09:07:48.576Z,5.30
2023-05-11T09:10:19.669Z,6.10
2023-05-11T09:12:50.982Z,5.80
2023-05-11T09:15:22.280Z,5.70
2023-05-11T09:17:53.063Z,6.00
2023-05-11T09:20:30.137Z,6.60
2023-05-11T09:23:01.145Z,6.40
2023-05-11T09:25:35.031Z,6.90
2023-05-11T09:28:06.505Z,6.50
2023-05-11T09:30:37.619Z,6.30
2023-05-11T09:33:08.444Z,7.00
2023-05-11T09:35:39.452Z,6.10
2023-05-11T09:38:11.466Z,7.40
2023-05-11T09:40:51.871Z,6.50
2023-05-11T09:43:24.227Z,6.40
2023-05-11T09:45:56.676Z,6.90
2023-05-11T09:48:30.213Z,6.10
2023-05-11T09:51:05.833Z,7.00
2023-05-11T09:53:43.579Z,7.20
2023-05-11T09:56:15.599Z,6.90
2023-05-11T09:58:52.258Z,6.20
2023-05-11T10:01:33.454Z,7.40
2023-05-11T10:04:22.372Z,7.40
2023-05-11T10:06:54.917Z,6.20
2023-05-11T10:09:28.489Z,7.80
2023-05-11T10:11:59.628Z,7.00
2023-05-11T10:14:31.796Z,8.00
2023-05-11T10:17:04.203Z,8.60
2023-05-11T10:19:35.935Z,7.90
2023-05-11T10:22:09.059Z,7.70
2023-05-11T10:24:40.953Z,7.20
2023-05-11T10:27:13.070Z,7.00
2023-05-11T10:29:45.733Z,7.40
2023-05-11T10:32:18.317Z,9.60
2023-05-11T10:34:50.516Z,7.70
2023-05-11T10:37:22.514Z,7.90
2023-05-11T10:39:53.180Z,7.70
2023-05-11T10:42:38.697Z,7.60
2023-05-11T10:45:25.449Z,8.20
2023-05-11T10:48:26.695Z,10.10
2023-05-11T10:51:11.711Z,7.80
2023-05-11T10:53:58.974Z,8.50
2023-05-11T10:56:54.031Z,8.80
2023-05-11T10:59:45.276Z,7.20
2023-05-11T11:02:17.924Z,8.00
2023-05-11T11:04:51.576Z,8.00
2023-05-11T11:07:22.123Z,8.40
2023-05-11T11:09:59.961Z,7.70
2023-05-11T11:12:31.270Z,8.30
2023-05-11T11:15:04.053Z,7.80
2023-05-11T11:17:36.396Z,7.40
2023-05-11T11:20:09.030Z,7.70
2023-05-11T11:22:49.484Z,8.20
2023-05-11T11:25:53.151Z,8.60
2023-05-11T11:28:23.777Z,8.20
2023-05-11T11:31:25.894Z,8.80
2023-05-11T11:33:59.032Z,9.00
2023-05-11T11:37:03.809Z,8.90
2023-05-11T11:42:42.041Z,9.00
2023-05-11T11:45:35.061Z,8.70
2023-05-11T11:48:16.986Z,8.80
2023-05-11T11:50:48.913Z,8.20
2023-05-11T11:54:08.634Z,8.20
2023-05-11T11:56:44.757Z,8.80
2023-05-11T11:59:18.988Z,9.10
2023-05-11T12:01:55.302Z,7.30
2023-05-11T12:04:46.070Z,9.10
2023-05-11T12:07:21.312Z,9.60
2023-05-11T12:09:53.605Z,7.80
2023-05-11T12:12:24.345Z,8.80
2023-05-11T12:14:55.061Z,9.00
2023-05-11T12:17:30.827Z,7.70
2023-05-11T12:20:16.945Z,8.10
2023-05-11T12:22:49.197Z,7.00
2023-05-11T12:25:21.758Z,9.30
2023-05-11T12:27:55.771Z,9.10
2023-05-11T12:30:28.348Z,7.70
2023-05-11T12:33:00.214Z,9.80
2023-05-11T12:35:32.904Z,8.70
2023-05-11T12:38:04.360Z,9.00
2023-05-11T12:40:35.819Z,9.40
2023-05-11T12:43:06.400Z,9.00
2023-05-11T12:45:37.110Z,9.30
2023-05-11T12:48:08.550Z,7.90
2023-05-11T12:50:43.919Z,9.20
2023-05-11T12:53:18.604Z,8.60
2023-05-11T12:56:00.577Z,9.30
2023-05-11T12:58:38.608Z,9.10
2023-05-11T13:01:10.062Z,9.30
2023-05-11T13:03:40.891Z,10.10
2023-05-11T13:06:13.250Z,9.80
2023-05-11T13:08:48.089Z,9.00
2023-05-11T13:11:23.141Z,9.30
2023-05-11T13:13:55.020Z,8.80
2023-05-11T13:16:30.260Z,10.00
2023-05-11T13:19:02.570Z,10.50
2023-05-11T13:21:33.948Z,9.80
2023-05-11T13:24:05.648Z,10.30
2023-05-11T13:26:36.652Z,9.60
2023-05-11T13:29:11.108Z,10.70
2023-05-11T13:31:47.465Z,9.60
2023-05-11T13:34:18.750Z,9.70
2023-05-11T13:36:50.245Z,10.70
2023-05-11T13:39:21.698Z,10.00
2023-05-11T13:41:54.374Z,10.20
2023-05-11T13:44:26.904Z,11.30
2023-05-11T13:46:58.334Z,10.20
2023-05-11T13:49:28.998Z,10.70
2023-05-11T13:52:00.591Z,10.00
2023-05-11T13:54:32.380Z,10.10
2023-05-11T13:57:03.664Z,9.80
2023-05-11T13:59:34.231Z,10.70
2023-05-11T14:02:05.307Z,9.20
2023-05-11T14:04:35.958Z,9.50
2023-05-11T14:07:07.578Z,8.90
2023-05-11T14:09:38.253Z,10.10
2023-05-11T14:12:09.664Z,10.00
2023-05-11T14:14:40.219Z,9.20
2023-05-11T14:17:11.279Z,10.00
2023-05-11T14:19:42.084Z,9.70
2023-05-11T14:22:12.822Z,8.80
2023-05-11T14:24:43.672Z,9.20
2023-05-11T14:27:14.718Z,10.20
2023-05-11T14:29:45.745Z,7.50
2023-05-11T14:32:16.628Z,10.10
2023-05-11T14:34:47.813Z,8.50
2023-05-11T14:37:18.870Z,9.20
2023-05-11T14:39:49.386Z,10.00
2023-05-11T14:42:20.017Z,9.80
2023-05-11T14:44:50.946Z,9.80
2023-05-11T14:47:21.856Z,9.80
2023-05-11T14:49:52.680Z,10.10
2023-05-11T14:52:23.306Z,8.10
2023-05-11T14:54:53.778Z,10.40
2023-05-11T14:57:24.781Z,9.40
2023-05-11T15:00:00.066Z,10.00
2023-05-11T15:02:31.432Z,9.80
2023-05-11T15:05:02.205Z,8.20
2023-05-11T15:07:32.806Z,10.40
2023-05-11T15:10:04.477Z,9.80
2023-05-11T15:12:35.050Z,8.10
2023-05-11T15:15:06.706Z,8.50
2023-05-11T15:17:37.525Z,9.60
2023-05-11T15:20:11.389Z,8.70
2023-05-11T15:22:42.376Z,7.50
2023-05-11T15:25:13.734Z,10.30
2023-05-11T15:27:44.739Z,9.50
2023-05-11T15:30:16.472Z,9.30
2023-05-11T15:32:47.413Z,9.10
2023-05-11T15:35:20.762Z,9.90
2023-05-11T15:37:51.640Z,9.20
2023-05-11T15:40:22.919Z,9.10
2023-05-11T15:42:53.627Z,9.60
2023-05-11T15:45:24.762Z,9.70
2023-05-11T15:47:55.476Z,9.00
2023-05-11T15:50:26.637Z,9.10
2023-05-11T15:52:57.390Z,8.50
2023-05-11T15:55:28.338Z,10.00
2023-05-11T15:57:58.834Z,9.50
2023-05-11T16:00:29.629Z,6.00
2023-05-11T16:03:00.207Z,9.30
2023-05-11T16:05:30.831Z,8.60
2023-05-11T16:08:01.323Z,9.00
2023-05-11T16:10:31.991Z,9.30
2023-05-11T16:13:02.619Z,7.90
2023-05-11T16:15:33.852Z,8.40
2023-05-11T16:18:05.473Z,9.10
2023-05-11T16:20:36.614Z,8.90
2023-05-11T16:23:07.294Z,7.70
2023-05-11T16:25:38.077Z,8.00
2023-05-11T16:28:08.858Z,8.30
2023-05-11T16:30:39.337Z,7.20
2023-05-11T16:33:09.983Z,7.50
2023-05-11T16:35:40.684Z,8.80
2023-05-11T16:38:18.163Z,9.10
2023-05-11T16:40:48.844Z,9.20
2023-05-11T16:43:19.689Z,8.00
2023-05-11T16:45:50.348Z,9.00
2023-05-11T16:48:21.526Z,9.30
2023-05-11T16:50:53.252Z,7.80
2023-05-11T16:53:27.134Z,8.70
2023-05-11T16:55:58.310Z,9.80
2023-05-11T16:58:29.992Z,9.00
2023-05-11T17:01:01.588Z,8.90
2023-05-11T17:03:34.536Z,8.40
2023-05-11T17:06:05.678Z,8.90
2023-05-11T17:08:36.813Z,8.80
2023-05-11T17:11:07.697Z,10.10
2023-05-11T17:13:38.268Z,10.00
2023-05-11T17:16:09.134Z,8.40
2023-05-11T17:18:39.973Z,8.30
2023-05-11T17:21:11.329Z,8.50
2023-05-11T17:23:42.027Z,8.30
2023-05-11T17:26:13.720Z,8.40
2023-05-11T17:28:44.263Z,8.60
2023-05-11T17:31:17.104Z,8.30
2023-05-11T17:33:47.917Z,8.60
2023-05-11T17:36:18.701Z,8.90
2023-05-11T17:38:51.221Z,8.40
2023-05-11T17:41:21.781Z,8.00
2023-05-11T17:43:52.516Z,8.90
2023-05-11T17:46:23.165Z,8.30
2023-05-11T17:48:54.322Z,8.50
2023-05-11T17:51:25.149Z,9.40
2023-05-11T17:53:56.296Z,8.90
2023-05-11T17:56:27.022Z,9.00
2023-05-11T17:58:57.781Z,8.50
2023-05-11T18:01:28.995Z,8.50
2023-05-11T18:04:01.150Z,9.40
2023-05-11T18:06:32.725Z,9.20
2023-05-11T18:09:04.926Z,8.70
2023-05-11T18:11:35.750Z,8.40
2023-05-11T18:14:06.345Z,9.50
2023-05-11T18:16:37.376Z,7.30
2023-05-11T18:19:14.415Z,9.20
2023-05-11T18:21:45.465Z,9.50
2023-05-11T18:24:17.665Z,10.10
2023-05-11T18:26:48.639Z,8.20
2023-05-11T18:29:21.867Z,9.10
2023-05-11T18:31:53.385Z,9.60
2023-05-11T18:34:23.948Z,9.30
2023-05-11T18:36:54.488Z,9.30
2023-05-11T18:39:24.985Z,8.30
2023-05-11T18:41:56.074Z,8.30
2023-05-11T18:44:27.566Z,8.30
2023-05-11T18:46:58.200Z,8.30
2023-05-11T18:49:28.789Z,7.70
2023-05-11T18:51:59.307Z,8.50
2023-05-11T18:54:29.773Z,8.10
2023-05-11T18:57:01.121Z,8.00
2023-05-11T18:59:31.719Z,8.10
2023-05-11T19:02:02.938Z,8.30
2023-05-11T19:04:33.877Z,7.90
2023-05-11T19:07:05.497Z,8.20
2023-05-11T19:09:37.119Z,8.00
2023-05-11T19:12:09.071Z,9.30
2023-05-11T19:14:40.061Z,8.70
2023-05-11T19:17:10.671Z,8.80
2023-05-11T19:19:41.264Z,8.50
2023-05-11T19:22:12.076Z,8.80
2023-05-11T19:24:42.658Z,8.80
2023-05-11T19:27:13.360Z,9.50
2023-05-11T19:29:44.197Z,9.00
2023-05-11T19:32:14.922Z,10.00
2023-05-11T19:34:45.506Z,10.70
2023-05-11T19:37:16.218Z,9.50
2023-05-11T19:39:46.677Z,9.30
2023-05-11T19:42:19.650Z,10.90
2023-05-11T19:44:54.069Z,10.70
2023-05-11T19:47:24.842Z,9.30
2023-05-11T19:49:56.288Z,13.90
2023-05-11T19:52:27.391Z,13.50
2023-05-11T19:55:00.240Z,9.90
2023-05-11T19:57:33.337Z,10.60
2023-05-11T20:00:05.287Z,10.40
2023-05-11T20:02:36.243Z,10.50
2023-05-11T20:05:08.021Z,10.60
2023-05-11T20:07:38.926Z,10.80
2023-05-11T20:10:11.712Z,11.00
2023-05-11T20:12:42.484Z,11.00
2023-05-11T20:15:13.537Z,10.10
2023-05-11T20:17:44.117Z,10.80
2023-05-11T20:20:15.238Z,10.70
2023-05-11T20:22:45.819Z,10.40
2023-05-11T20:25:18.620Z,10.10
2023-05-11T20:27:49.650Z,10.20
2023-05-11T20:30:20.911Z,10.10
2023-05-11T20:35:25.559Z,9.80
2023-05-11T20:37:56.759Z,10.50
2023-05-11T20:40:27.219Z,10.80
2023-05-11T20:42:57.700Z,10.60
2023-05-11T20:45:28.786Z,11.20
2023-05-11T20:47:59.363Z,11.50
2023-05-11T20:50:30.053Z,10.90
2023-05-11T20:53:01.367Z,10.50
2023-05-11T20:55:31.870Z,10.10
2023-05-11T20:58:04.260Z,9.70
2023-05-11T21:00:35.222Z,9.90
2023-05-11T21:03:06.081Z,9.20
2023-05-11T21:05:36.830Z,8.70
2023-05-11T21:08:07.793Z,9.50
2023-05-11T21:10:38.776Z,9.70
2023-05-11T21:13:09.469Z,9.20
2023-05-11T21:15:40.083Z,8.40
2023-05-11T21:18:10.834Z,8.60
2023-05-11T21:20:41.414Z,9.00
2023-05-11T21:23:12.018Z,9.00
2023-05-11T21:25:42.642Z,8.80
2023-05-11T21:28:13.354Z,8.50
2023-05-11T21:30:44.200Z,8.20
2023-05-11T21:33:15.679Z,8.80
2023-05-11T21:35:46.385Z,8.00
2023-05-11T21:38:17.640Z,8.40
2023-05-11T21:40:53.395Z,8.50
2023-05-11T21:43:24.572Z,8.70
2023-05-11T21:45:55.201Z,8.60
2023-05-11T21:48:26.261Z,7.50
2023-05-11T21:50:57.353Z,8.50
2023-05-11T21:53:28.057Z,8.40
2023-05-11T21:55:59.069Z,8.30
2023-05-11T21:58:29.668Z,8.10
2023-05-11T22:01:00.225Z,8.00
2023-05-11T22:03:31.771Z,7.40
2023-05-11T22:06:02.429Z,10.30
2023-05-11T22:08:33.069Z,9.00
2023-05-11T22:11:04.096Z,7.60
2023-05-11T22:13:34.928Z,8.10
2023-05-11T22:16:07.299Z,7.80
2023-05-11T22:18:38.506Z,7.60
2023-05-11T22:21:09.076Z,7.20
2023-05-11T22:23:39.736Z,6.70
2023-05-11T22:26:10.338Z,6.50
2023-05-11T22:28:41.179Z,6.70
2023-05-11T22:31:11.904Z,6.90
2023-05-11T22:33:42.434Z,7.00
2023-05-11T22:36:13.529Z,7.00
2023-05-11T22:38:44.329Z,7.80
2023-05-11T22:41:14.966Z,7.70
2023-05-11T22:43:47.852Z,7.40
2023-05-11T22:46:18.421Z,7.60
2023-05-11T22:48:49.363Z,7.40
2023-05-11T22:51:20.158Z,7.30
2023-05-11T22:53:50.759Z,6.30
2023-05-11T22:56:21.294Z,5.40
2023-05-11T22:58:52.628Z,5.60
2023-05-11T23:01:23.343Z,6.00
2023-05-11T23:03:54.272Z,6.40
2023-05-11T23:06:25.473Z,6.70
2023-05-11T23:08:55.950Z,7.50
2023-05-11T23:11:26.857Z,7.20
2023-05-11T23:13:57.684Z,8.20
2023-05-11T23:16:29.120Z,8.10
2023-05-11T23:19:01.840Z,7.20
2023-05-11T23:21:33.144Z,6.90
2023-05-11T23:24:04.720Z,7.20
2023-05-11T23:26:36.584Z,6.50
2023-05-11T23:29:07.537Z,6.70
2023-05-11T23:31:38.476Z,6.90
2023-05-11T23:34:09.122Z,7.40
2023-05-11T23:36:39.804Z,7.00
2023-05-11T23:39:10.769Z,6.90
2023-05-11T23:41:41.389Z,7.10
2023-05-11T23:44:11.774Z,7.40
2023-05-11T23:46:42.386Z,7.00
2023-05-11T23:49:13.031Z,7.00
2023-05-11T23:51:43.879Z,7.70
2023-05-11T23:54:14.770Z,7.50
2023-05-11T23:56:46.705Z,8.30
2023-05-11T23:59:17.494Z,7.50
